Latest Coastal Weather Observations for East Sale

IDV60701

Issued at 3:42 pm EST Wednesday 6 September 2017 (issued every 10 minutes, with the page automatically refreshed every 10 minutes)

About coastal observations | Map of coastal stations | Coastal observations for VIC | Marine services | Other Formats
Station Details ID: 085072 Name: EAST SALE AIRPORT Lat: -38.12 Lon: 147.13 Height: 4.6 m
Data from the previous 72 hours. | See also: Recent months at East Sale
Date/Time
EST
Temp
°C
Wind Pressure Rain since
9am
mm
Weather Cloud Vis
km
Sea
Height
m
Swell
Dir  Spd
kts
Gust
kts
hPa Trend Height
m
Period
s
Dir
06/03:30pm 13.1 WNW 20 29 1011.4 - - - Mostly cloudy 10 - - - -
06/03:23pm 13.1 W 19 29 1011.3 - - - Partly cloudy 10 - - - -
06/03:00pm 13.0 - - - - - - Recent precip. - - - - - -
06/02:35pm 12.3 W 20 31 1011.1 - - - Partly cloudy 10 - - - -
06/02:00pm 13.2 W 22 35 1011.1 - 0.4 - Partly cloudy 10 - - - -
06/01:30pm 12.3 W 21 33 1011.1 - 0.4 - Partly cloudy 10 - - - -
06/01:04pm 12.4 WNW 18 28 1011.1 - 0.4 - Partly cloudy 10 - - - -
06/01:00pm 12.2 WNW 18 27 1011.3 - 0.4 - Partly cloudy 10 - - - -
06/12:35pm 11.3 W 17 27 1011.3 - 0.4 - Partly cloudy 10 - - - -
06/12:30pm 11.6 W 19 27 1011.2 - 0.4 Showers Mostly cloudy 10 - - - -
06/12:00pm 11.7 WNW 20 31 1011.3 R 0.4 Rain Cloudy 10 - - - -
06/11:53am 11.6 WNW 17 27 1011.2 - 0.4 - Partly cloudy 10 - - - -
06/11:30am 10.5 W 18 24 1011.7 - 0.2 Showers Partly cloudy 10 - - - -
06/11:02am 12.0 W 17 27 1011.2 - 0.0 - Partly cloudy 10 - - - -
06/11:00am 12.1 W 17 25 1011.3 - 0.0 - Partly cloudy 10 - - - -
06/10:31am 12.1 W 16 28 1010.9 - 0.0 - Partly cloudy 10 - - - -
06/10:30am 12.1 W 16 21 1011.0 - 0.0 - Partly cloudy 10 - - - -
06/10:21am 11.1 W 17 27 1011.1 - 0.0 - Partly cloudy 10 - - - -
06/10:00am 11.5 WNW 19 26 1011.0 - 0.0 - Partly cloudy 10 - - - -
06/09:34am 10.7 WNW 17 27 1011.0 - 0.0 - Mostly cloudy 10 - - - -
06/09:30am 10.8 WNW 16 22 1010.9 - 0.0 - Mostly cloudy 10 - - - -
06/09:08am 10.8 WNW 19 31 1010.6 - 0.0 - Partly cloudy 10 - - - -
06/09:00am 11.2 WNW 19 30 1010.4 R - Fine Partly cloudy 10 - - - -
06/08:30am 10.2 W 15 26 1010.3 - - - Partly cloudy 10 - - - -
06/08:15am 9.8 WNW 15 26 1010.1 - - Showers Mostly cloudy 10 - - - -
06/08:00am 9.4 W 15 21 1010.0 - - - Partly cloudy 10 - - - -
06/07:30am 8.9 W 15 22 1009.9 - - - Mostly clear 10 - - - -
06/07:25am 9.0 W 15 25 1009.8 - - - Partly cloudy 10 - - - -
06/07:00am 8.2 W 13 19 1009.5 - - - Partly cloudy 10 - - - -
06/06:30am 8.4 W 15 22 1008.8 - - - Cloudy 10 - - - -
06/06:00am 8.2 W 15 22 1008.4 R - - Partly cloudy 10 - - - -
06/05:44am 8.2 W 15 26 1008.5 - - - Partly cloudy 10 - - - -
06/05:30am 8.3 WNW 16 23 1008.2 - - - Partly cloudy 10 - - - -
06/05:03am 8.3 W 16 26 1008.0 - - - Partly cloudy 10 - - - -
06/05:00am 8.3 W 17 26 1008.1 - - - Partly cloudy 10 - - - -
06/04:36am 8.0 WNW 18 28 1007.5 - - - Partly cloudy 10 - - - -
06/04:30am 8.1 WNW 19 28 1007.4 - - - Partly cloudy 10 - - - -
06/04:08am 8.0 WNW 17 28 1007.2 - - - Partly cloudy 10 - - - -
06/04:00am 7.9 WNW 16 24 1007.1 - - - Partly cloudy 10 - - - -
06/03:30am 7.8 WNW 17 23 1007.1 - - - Partly cloudy 10 - - - -
06/03:00am 7.3 WNW 14 19 1007.1 R 0.8 - Mostly cloudy 10 - - - -
06/02:30am 6.8 WNW 14 20 1007.3 - - - - 10 - - - -
06/02:00am 6.8 WNW 16 26 1007.1 - - - - 10 - - - -
06/01:53am 7.0 WNW 16 26 1007.1 - - - - 10 - - - -
06/01:30am 7.0 WNW 17 22 1007.2 - - - - 10 - - - -
06/01:19am 6.9 WNW 17 27 1007.4 - - - - 10 - - - -
06/01:00am 7.0 WNW 18 25 1007.5 - - - Partly cloudy 10 - - - -
06/12:45am 7.1 W 15 25 1007.9 - - - Partly cloudy 10 - - - -
06/12:30am 6.9 W 13 19 1007.8 - - - Partly cloudy 10 - - - -
06/12:00am 6.7 W 11 17 1007.7 R - Rain Cloudy 10 - - - -
 
Date/Time
EST
Temp
°C
Wind Pressure Rain since
9am
mm
Weather Cloud Vis
km
Sea
Height
m
Swell
Dir  Spd
kts
Gust
kts
hPa Trend Height
m
Period
s
Dir
05/11:33pm 6.4 W 15 25 1007.5 - - - Partly cloudy 10 - - - -
05/11:30pm 6.6 W 14 25 1007.5 - - - Partly cloudy 10 - - - -
05/11:00pm 5.5 W 12 17 1007.5 - - - Partly cloudy 10 - - - -
05/10:30pm 5.5 WNW 13 18 1007.3 - - - - 10 - - - -
05/10:00pm 5.8 W 17 24 1007.4 - - - Partly cloudy 10 - - - -
05/09:30pm 5.8 WNW 20 31 1007.2 - - - Partly cloudy 10 - - - -
05/09:24pm 5.8 WNW 15 28 1007.1 - - - Partly cloudy 10 - - - -
05/09:00pm 5.0 W 11 15 1007.2 R - Rain Mostly cloudy 10 - - - -
05/08:30pm 5.1 WNW 12 18 1006.6 - - - Partly cloudy 10 - - - -
05/08:00pm 5.4 W 17 23 1006.8 - - - Partly cloudy 10 - - - -
05/07:55pm 5.5 W 18 26 1006.8 - - - Partly cloudy 10 - - - -
05/07:52pm 5.5 W 19 29 1006.8 - - - Partly cloudy 10 - - - -
05/07:43pm 5.6 WSW 19 27 1006.5 - - - Partly cloudy 6 - - - -
05/07:37pm 6.1 WSW 16 27 1006.4 - - - Partly cloudy 9 - - - -
05/07:30pm 6.3 W 16 22 1006.2 - - - Partly cloudy 10 - - - -
05/07:23pm 6.3 W 16 23 1005.8 - - - Partly cloudy 10 - - - -
05/07:00pm 6.4 WSW 12 18 1005.8 - - - Partly cloudy 6 - - - -
05/06:59pm 6.3 WSW 11 18 1005.7 - - - Partly cloudy 6 - - - -
05/06:39pm 6.7 W 12 18 1004.9 - - - Partly cloudy 10 - - - -
05/06:30pm 6.6 W 10 15 1004.9 - - - Partly cloudy 7 - - - -
05/06:25pm 6.6 W 11 18 1005.0 - - - Partly cloudy 6 - - - -
05/06:00pm 6.9 W 13 20 1004.6 - - Rain Mostly cloudy 10 - - - -
05/05:47pm 7.0 WSW 14 20 1004.5 - - - - 10 - - - -
05/05:33pm 7.3 WSW 17 23 1004.5 - - - - 5 - - - -
05/05:30pm 7.5 - - - 1004.4 - - - - - - - - -
05/05:00pm 10.1 - - - - - 0.0 - - - - - - -
05/04:30pm 10.2 - - - - - 0.0 - - - - - - -
05/04:00pm 9.3 - - - - - 0.0 - - - - - - -
05/03:30pm 9.9 - - - - - 0.0 - - - - - - -
05/03:00pm 11.4 - - - - - 0.0 - - - - - - -
05/02:30pm 12.4 - - - - - 0.0 - - - - - - -
05/02:00pm 11.8 WNW 17 24 1003.7 - 0.0 - Partly cloudy 10 - - - -
05/01:30pm 10.8 WNW 22 37 1004.3 - 0.0 - Partly cloudy 10 - - - -
05/01:00pm 12.0 WNW 23 34 1004.5 - 0.0 - Partly cloudy 10 - - - -
05/12:30pm 12.4 WNW 25 35 1005.0 - 0.0 - Partly cloudy 10 - - - -
05/12:00pm 12.4 WNW 21 29 1004.9 R 0.0 - Mostly cloudy 10 - - - -
05/11:30am 11.3 WNW 24 36 1005.0 - 0.0 - Partly cloudy 10 - - - -
05/11:00am 10.4 WNW 23 39 1005.5 - 0.0 - Partly cloudy 10 - - - -
05/10:30am 10.7 WNW 24 33 1005.2 - 0.0 - Partly cloudy 10 - - - -
05/10:00am 10.3 WNW 24 36 1005.3 - 0.0 - Mostly clear 10 - - - -
05/09:41am 9.9 WNW 18 38 1005.0 - 0.0 - Mostly clear 10 - - - -
05/09:36am 9.9 WNW 18 28 1005.2 - 0.0 - Partly cloudy 10 - - - -
05/09:30am 9.6 WNW 19 28 1005.1 - 0.0 - Partly cloudy 10 - - - -
05/09:00am 9.6 WNW 19 31 1005.0 F 0.4 - - 10 - - - -
05/08:55am 9.2 WNW 21 31 1005.0 - 0.4 - - 10 - - - -
05/08:30am 8.7 - - - - - 0.4 - - 10 - - - -
05/08:00am 7.9 NW 20 31 1004.9 - 0.4 - Partly cloudy 10 - - - -
05/07:33am 7.3 WNW 17 27 1004.8 - 0.4 - Partly cloudy 10 - - - -
05/07:30am 7.1 WNW 17 24 1004.8 - 0.4 - Partly cloudy 10 - - - -
05/07:00am 6.0 WNW 15 24 1004.4 - 0.4 - Mostly clear 10 - - - -
05/06:30am 5.7 WNW 19 29 1004.3 - 0.4 - Partly cloudy 10 - - - -
05/06:00am 5.7 WNW 19 32 1004.2 R 0.4 - Partly cloudy 10 - - - -
05/05:42am 5.4 WNW 15 27 1004.1 - 0.4 - - 10 - - - -
05/05:30am 5.1 WNW 14 19 1004.0 - 0.4 - - 10 - - - -
05/05:00am 5.8 WNW 18 27 1003.7 - 0.4 - Partly cloudy 10 - - - -
05/04:35am 7.0 W 15 25 1003.4 - 0.4 - Partly cloudy 10 - - - -
05/04:30am 7.2 W 14 20 1003.4 - 0.4 - Partly cloudy 10 - - - -
05/04:00am 7.0 WNW 14 24 1002.9 - 0.4 - Partly cloudy 10 - - - -
05/03:36am 6.0 WNW 15 25 1002.3 - 0.4 - Partly cloudy 10 - - - -
05/03:30am 6.2 WNW 16 25 1002.3 - 0.4 - Partly cloudy 10 - - - -
05/03:21am 6.5 WNW 15 25 1002.3 - 0.4 - Partly cloudy 10 - - - -
05/03:00am 7.3 WNW 16 21 1002.6 F 0.4 - Cloudy 10 - - - -
05/02:30am 7.3 WNW 21 30 1002.5 - 0.4 - - 10 - - - -
05/02:24am 7.3 WNW 18 30 1002.6 - 0.4 - - 10 - - - -
05/02:00am 6.8 WNW 14 21 1003.1 - 0.4 - Partly cloudy 10 - - - -
05/01:30am 7.1 NW 11 15 1003.3 - 0.4 - Partly cloudy 10 - - - -
05/01:00am 5.7 NW 10 14 1003.5 - 0.4 - Partly cloudy 10 - - - -
05/12:30am 5.8 NW 12 16 1003.4 - 0.4 - - 10 - - - -
05/12:00am 6.4 NW 12 17 1003.6 F 0.4 - Partly cloudy 10 - - - -
 
Date/Time
EST
Temp
°C
Wind Pressure Rain since
9am
mm
Weather Cloud Vis
km
Sea
Height
m
Swell
Dir  Spd
kts
Gust
kts
hPa Trend Height
m
Period
s
Dir
04/11:32pm 7.0 WNW 16 26 1003.5 - 0.4 - - 10 - - - -
04/11:30pm 7.0 WNW 15 22 1003.5 - 0.4 - - 10 - - - -
04/11:00pm 7.0 WNW 16 23 1003.6 - 0.4 - - 10 - - - -
04/10:54pm 7.0 WNW 15 23 1003.8 - 0.4 - - 10 - - - -
04/10:30pm 5.8 NW 10 13 1003.9 - 0.4 - Partly cloudy 10 - - - -
04/10:00pm 6.1 NW 12 16 1004.1 - 0.4 - - 10 - - - -
04/09:30pm 6.4 NW 11 18 1004.3 - 0.4 - Partly cloudy 10 - - - -
04/09:00pm 6.8 WNW 16 23 1004.3 F 0.4 Showers Cloudy 10 - - - -
04/08:48pm 7.0 NW 15 27 1004.2 - 0.4 - Partly cloudy 10 - - - -
04/08:30pm 6.5 NW 11 18 1004.5 - 0.4 - Partly cloudy 10 - - - -
04/08:00pm 6.6 NW 11 14 1004.2 - 0.4 - - 10 - - - -
04/07:30pm 7.2 NW 13 17 1004.2 - 0.4 - Partly cloudy 10 - - - -
04/07:00pm 6.5 NW 12 15 1003.8 - 0.4 - - 10 - - - -
04/06:30pm 6.7 WNW 12 16 1003.4 - 0.4 - Partly cloudy 10 - - - -
04/06:00pm 7.4 WNW 15 21 1003.6 R 0.4 Rain Cloudy 10 - - - -
04/05:30pm 7.3 W 12 17 1003.7 - 0.4 - Partly cloudy 10 - - - -
04/05:00pm 8.4 WNW 11 17 1003.1 - 0.0 - Partly cloudy 10 - - - -
04/04:30pm 8.3 W 18 30 1003.2 - 0.0 - Mostly clear 10 - - - -
04/04:25pm 8.6 W 18 30 1003.2 - 0.0 Showers Partly cloudy 10 - - - -
04/04:00pm 10.2 WNW 11 18 1002.5 - 0.0 - Mostly clear 10 - - - -
04/03:31pm 11.1 NW 18 31 1002.2 - 0.0 - Partly cloudy 10 - - - -
04/03:30pm 11.1 NW 17 24 1002.2 - 0.0 - Partly cloudy 10 - - - -
04/03:00pm 12.1 NW 17 23 1002.4 F 0.0 - Mostly cloudy 10 - - - -
04/02:30pm 11.4 NW 9 14 1002.7 - 0.0 - Mostly clear 10 - - - -
04/02:00pm 11.1 WNW 12 18 1003.3 - 0.0 - Partly cloudy 10 - - - -
04/01:30pm 10.3 WNW 16 28 1003.4 - 0.0 - Partly cloudy 10 - - - -
04/01:00pm 9.5 WNW 22 34 1003.5 - 0.0 - Partly cloudy 10 - - - -
04/12:34pm 12.8 WNW 22 32 1003.2 - 0.0 - Partly cloudy 10 - - - -
04/12:30pm 12.5 NW 24 31 1003.3 - 0.0 - Partly cloudy 10 - - - -
04/12:00pm 12.4 WNW 20 31 1003.6 R 0.0 - Cloudy 10 - - - -
04/11:30am 12.9 WNW 20 32 1003.5 - 0.0 - Partly cloudy 10 - - - -
04/11:00am 13.2 WNW 22 33 1003.9 - 0.0 - Partly cloudy 10 - - - -
04/10:30am 11.5 WNW 21 34 1003.9 - 0.0 - - 10 - - - -
04/10:07am 12.0 WNW 15 26 1003.9 - 0.0 - - 10 - - - -
04/10:00am 11.3 WNW 13 19 1004.1 - 0.0 - Partly cloudy 10 - - - -
04/09:30am 8.5 W 19 28 1004.6 - 0.0 - Mostly clear 10 - - - -
04/09:06am 8.9 W 15 25 1004.5 - 0.0 - Partly cloudy 10 - - - -
04/09:00am 9.1 W 14 19 1004.4 R 1.0 - Cloudy 10 - - - -
04/08:30am 8.3 WNW 16 23 1004.2 - 1.0 - Mostly clear 10 - - - -
04/08:00am 9.5 NW 16 21 1003.5 - 1.0 - Partly cloudy 10 - - - -
04/07:30am 9.2 NW 14 22 1002.9 - 1.0 - Partly cloudy 10 - - - -
04/07:25am 9.2 NNW 12 22 1002.7 - 1.0 - Partly cloudy 10 - - - -
04/07:00am 7.8 N 6 8 1002.6 - 1.0 - Partly cloudy 10 - - - -
04/06:30am 6.2 N 7 9 1002.3 - 1.0 - Partly cloudy 10 - - - -
04/06:00am 6.4 NNW 4 5 1002.3 F 1.0 - - 10 - - - -
04/05:30am 7.7 NW 6 9 1002.1 - 1.0 - - 10 - - - -
04/05:00am 9.0 WNW 9 11 1002.2 - 1.0 - Partly cloudy 10 - - - -
04/04:30am 9.4 NW 13 16 1002.2 - 1.0 - Partly cloudy 10 - - - -
04/04:02am 9.9 NW 15 25 1002.1 - 1.0 - Partly cloudy 10 - - - -
04/04:00am 9.9 NW 13 25 1002.1 - 1.0 - Partly cloudy 10 - - - -
04/03:30am 9.9 NW 12 16 1002.2 - 1.0 - Cloudy 10 - - - -
04/03:00am 9.9 NNW 12 16 1002.2 F 1.0 Rain Cloudy 10 - - - -
04/02:30am 10.0 NW 12 21 1002.7 - 1.0 - Partly cloudy 10 - - - -
04/02:00am 10.9 NW 11 15 1003.6 - 0.4 - Partly cloudy 10 - - - -
04/01:30am 11.1 NW 11 17 1003.3 - 0.4 - Partly cloudy 10 - - - -
04/01:00am 11.0 NW 11 14 1003.5 - 0.4 - Partly cloudy 10 - - - -
04/12:30am 11.0 NW 14 17 1003.5 - 0.4 - - 10 - - - -
04/12:00am 11.0 NW 14 18 1003.8 F 0.4 - - 10 - - - -
 
Date/Time
EST
Temp
°C
Wind Pressure Rain since
9am
mm
Weather Cloud Vis
km
Sea
Height
m
Swell
Dir  Spd
kts
Gust
kts
hPa Trend Height
m
Period
s
Dir
03/11:30pm 10.5 NW 12 17 1004.2 - 0.4 - - 10 - - - -
03/11:00pm 10.3 NW 11 15 1004.6 - 0.4 - Partly cloudy 10 - - - -
03/10:30pm 10.7 NW 10 13 1005.0 - 0.4 - Partly cloudy 10 - - - -
03/10:00pm 10.7 NW 10 13 1004.9 - 0.4 - Partly cloudy 10 - - - -
03/09:30pm 8.2 NW 6 9 1004.9 - 0.4 - - 10 - - - -
03/09:00pm 5.6 NNE 2 5 1005.0 F 0.4 - - 10 - - - -
03/08:30pm 5.1 ENE 5 5 1004.9 - 0.4 - - 10 - - - -
03/08:00pm 7.3 SSE 4 5 1005.2 - 0.4 - - 10 - - - -
03/07:30pm 7.9 WSW 3 4 1005.1 - 0.4 - - 10 - - - -
03/07:00pm 9.2 NW 5 5 1004.9 - 0.4 - - 10 - - - -
03/06:30pm 9.8 WSW 3 5 1004.7 - 0.4 - - 10 - - - -
03/06:00pm 11.0 NNW 5 6 1004.8 R 0.4 - - 10 - - - -
03/05:30pm 12.7 WNW 5 7 1004.7 - 0.4 - Partly cloudy 10 - - - -
03/05:00pm 13.1 NW 9 14 1004.3 - 0.4 - Partly cloudy 10 - - - -
03/04:30pm 13.3 WNW 15 23 1004.1 - 0.4 - Partly cloudy 10 - - - -
03/04:00pm 13.4 WNW 17 25 1004.0 - 0.4 - Partly cloudy 10 - - - -
03/03:50pm 13.7 W 15 27 1003.7 - 0.4 - Partly cloudy 10 - - - -

Other Formats:

Comma delimited format used in spreadsheet applications
http://www.bom.gov.au/fwo/IDV60701/IDV60701.94907.axf

JavaScript Object Notation format (JSON) in row-major order
http://www.bom.gov.au/fwo/IDV60701/IDV60701.94907.json